sensor_id;sensor_type;location;lat;lon;timestamp;P1;durP1;ratioP1;P2;durP2;ratioP2
65230;SDS011;51813;40.666;16.602;2023-02-28T00:00:00;3.85;;;1.70;;
65230;SDS011;51813;40.666;16.602;2023-02-28T00:02:33;3.08;;;1.27;;
65230;SDS011;51813;40.666;16.602;2023-02-28T00:04:59;2.38;;;1.27;;
65230;SDS011;51813;40.666;16.602;2023-02-28T00:07:26;3.22;;;1.38;;
65230;SDS011;51813;40.666;16.602;2023-02-28T00:09:53;2.58;;;1.00;;
65230;SDS011;51813;40.666;16.602;2023-02-28T00:12:18;2.60;;;1.38;;
65230;SDS011;51813;40.666;16.602;2023-02-28T00:14:44;2.25;;;1.13;;
65230;SDS011;51813;40.666;16.602;2023-02-28T00:17:10;2.83;;;1.25;;
65230;SDS011;51813;40.666;16.602;2023-02-28T00:19:35;2.72;;;1.40;;
65230;SDS011;51813;40.666;16.602;2023-02-28T00:22:01;2.40;;;1.30;;
65230;SDS011;51813;40.666;16.602;2023-02-28T00:24:27;2.50;;;1.10;;
65230;SDS011;51813;40.666;16.602;2023-02-28T00:26:52;2.70;;;1.25;;
65230;SDS011;51813;40.666;16.602;2023-02-28T00:29:18;1.95;;;1.13;;
65230;SDS011;51813;40.666;16.602;2023-02-28T00:31:43;2.20;;;1.10;;
65230;SDS011;51813;40.666;16.602;2023-02-28T00:34:09;2.05;;;1.20;;
65230;SDS011;51813;40.666;16.602;2023-02-28T00:36:35;3.30;;;1.25;;
65230;SDS011;51813;40.666;16.602;2023-02-28T00:39:00;2.50;;;1.33;;
65230;SDS011;51813;40.666;16.602;2023-02-28T00:41:26;3.20;;;1.20;;
65230;SDS011;51813;40.666;16.602;2023-02-28T00:43:52;2.75;;;1.10;;
65230;SDS011;51813;40.666;16.602;2023-02-28T00:46:17;3.92;;;1.52;;
65230;SDS011;51813;40.666;16.602;2023-02-28T00:48:43;2.67;;;1.50;;
65230;SDS011;51813;40.666;16.602;2023-02-28T00:51:09;2.50;;;1.17;;
65230;SDS011;51813;40.666;16.602;2023-02-28T00:53:34;2.67;;;1.10;;
65230;SDS011;51813;40.666;16.602;2023-02-28T00:56:00;2.15;;;1.30;;
65230;SDS011;51813;40.666;16.602;2023-02-28T00:58:26;2.40;;;1.30;;
65230;SDS011;51813;40.666;16.602;2023-02-28T01:00:52;2.63;;;1.30;;
65230;SDS011;51813;40.666;16.602;2023-02-28T01:03:19;2.80;;;1.00;;
65230;SDS011;51813;40.666;16.602;2023-02-28T01:05:46;2.75;;;1.17;;
65230;SDS011;51813;40.666;16.602;2023-02-28T01:08:12;3.08;;;1.77;;
65230;SDS011;51813;40.666;16.602;2023-02-28T01:10:38;2.35;;;1.20;;
65230;SDS011;51813;40.666;16.602;2023-02-28T01:13:04;2.03;;;1.10;;
65230;SDS011;51813;40.666;16.602;2023-02-28T01:15:30;2.42;;;1.20;;
65230;SDS011;51813;40.666;16.602;2023-02-28T01:17:57;3.95;;;1.25;;
65230;SDS011;51813;40.666;16.602;2023-02-28T01:20:23;2.60;;;1.70;;
65230;SDS011;51813;40.666;16.602;2023-02-28T01:22:49;3.10;;;1.63;;
65230;SDS011;51813;40.666;16.602;2023-02-28T01:25:14;2.33;;;1.35;;
65230;SDS011;51813;40.666;16.602;2023-02-28T01:27:40;3.33;;;1.40;;
65230;SDS011;51813;40.666;16.602;2023-02-28T01:30:06;2.30;;;1.20;;
65230;SDS011;51813;40.666;16.602;2023-02-28T01:32:33;2.60;;;1.27;;
65230;SDS011;51813;40.666;16.602;2023-02-28T01:34:59;4.05;;;1.63;;
65230;SDS011;51813;40.666;16.602;2023-02-28T01:37:25;2.38;;;1.30;;
65230;SDS011;51813;40.666;16.602;2023-02-28T01:39:51;2.33;;;1.30;;
65230;SDS011;51813;40.666;16.602;2023-02-28T01:42:16;3.17;;;1.63;;
65230;SDS011;51813;40.666;16.602;2023-02-28T01:47:30;3.22;;;2.10;;
65230;SDS011;51813;40.666;16.602;2023-02-28T01:49:59;2.88;;;1.50;;
65230;SDS011;51813;40.666;16.602;2023-02-28T01:52:27;5.40;;;2.17;;
65230;SDS011;51813;40.666;16.602;2023-02-28T01:54:55;3.08;;;1.50;;
65230;SDS011;51813;40.666;16.602;2023-02-28T01:57:25;3.00;;;1.50;;
65230;SDS011;51813;40.666;16.602;2023-02-28T02:00:03;2.85;;;1.75;;
65230;SDS011;51813;40.666;16.602;2023-02-28T02:02:33;2.85;;;1.20;;
65230;SDS011;51813;40.666;16.602;2023-02-28T02:05:06;2.45;;;1.58;;
65230;SDS011;51813;40.666;16.602;2023-02-28T02:07:34;2.47;;;1.48;;
65230;SDS011;51813;40.666;16.602;2023-02-28T02:10:22;3.42;;;1.85;;
65230;SDS011;51813;40.666;16.602;2023-02-28T02:18:10;2.28;;;1.30;;
65230;SDS011;51813;40.666;16.602;2023-02-28T02:26:33;2.38;;;1.60;;
65230;SDS011;51813;40.666;16.602;2023-02-28T02:45:44;2.17;;;1.20;;
65230;SDS011;51813;40.666;16.602;2023-02-28T02:50:40;2.55;;;1.45;;
65230;SDS011;51813;40.666;16.602;2023-02-28T02:53:10;1.95;;;1.10;;
65230;SDS011;51813;40.666;16.602;2023-02-28T02:55:40;2.10;;;1.30;;
65230;SDS011;51813;40.666;16.602;2023-02-28T02:58:10;2.22;;;1.38;;
65230;SDS011;51813;40.666;16.602;2023-02-28T03:00:43;2.42;;;1.40;;
65230;SDS011;51813;40.666;16.602;2023-02-28T03:03:12;2.10;;;1.40;;
65230;SDS011;51813;40.666;16.602;2023-02-28T03:05:42;2.70;;;1.80;;
65230;SDS011;51813;40.666;16.602;2023-02-28T03:08:11;2.58;;;1.60;;
65230;SDS011;51813;40.666;16.602;2023-02-28T03:10:38;2.60;;;1.80;;
65230;SDS011;51813;40.666;16.602;2023-02-28T03:21:32;2.63;;;1.63;;
65230;SDS011;51813;40.666;16.602;2023-02-28T03:24:15;2.50;;;1.73;;
65230;SDS011;51813;40.666;16.602;2023-02-28T03:26:54;2.13;;;1.40;;
65230;SDS011;51813;40.666;16.602;2023-02-28T03:29:38;2.40;;;1.52;;
65230;SDS011;51813;40.666;16.602;2023-02-28T03:34:48;2.85;;;1.98;;
65230;SDS011;51813;40.666;16.602;2023-02-28T03:37:22;2.42;;;1.60;;
65230;SDS011;51813;40.666;16.602;2023-02-28T03:40:01;2.65;;;1.70;;
65230;SDS011;51813;40.666;16.602;2023-02-28T03:42:41;2.85;;;1.75;;
65230;SDS011;51813;40.666;16.602;2023-02-28T03:45:12;2.22;;;1.40;;
65230;SDS011;51813;40.666;16.602;2023-02-28T03:47:44;3.00;;;1.70;;
65230;SDS011;51813;40.666;16.602;2023-02-28T03:50:27;3.03;;;2.17;;
65230;SDS011;51813;40.666;16.602;2023-02-28T03:55:41;3.28;;;2.22;;
65230;SDS011;51813;40.666;16.602;2023-02-28T03:58:32;2.90;;;1.80;;
65230;SDS011;51813;40.666;16.602;2023-02-28T04:01:20;3.45;;;2.00;;
65230;SDS011;51813;40.666;16.602;2023-02-28T04:04:01;3.13;;;2.22;;
65230;SDS011;51813;40.666;16.602;2023-02-28T04:06:27;2.90;;;1.77;;
65230;SDS011;51813;40.666;16.602;2023-02-28T04:08:56;2.90;;;1.60;;
65230;SDS011;51813;40.666;16.602;2023-02-28T04:14:29;3.17;;;1.60;;
65230;SDS011;51813;40.666;16.602;2023-02-28T04:16:54;2.72;;;1.90;;
65230;SDS011;51813;40.666;16.602;2023-02-28T04:19:20;2.95;;;1.83;;
65230;SDS011;51813;40.666;16.602;2023-02-28T04:21:49;2.88;;;1.67;;
65230;SDS011;51813;40.666;16.602;2023-02-28T04:24:21;3.28;;;1.90;;
65230;SDS011;51813;40.666;16.602;2023-02-28T04:26:49;3.03;;;1.70;;
65230;SDS011;51813;40.666;16.602;2023-02-28T04:29:23;2.67;;;1.52;;
65230;SDS011;51813;40.666;16.602;2023-02-28T04:31:54;3.25;;;1.60;;
65230;SDS011;51813;40.666;16.602;2023-02-28T04:34:22;2.35;;;1.40;;
65230;SDS011;51813;40.666;16.602;2023-02-28T04:36:49;2.20;;;1.40;;
65230;SDS011;51813;40.666;16.602;2023-02-28T04:39:16;2.50;;;1.50;;
65230;SDS011;51813;40.666;16.602;2023-02-28T04:41:43;2.92;;;1.52;;
65230;SDS011;51813;40.666;16.602;2023-02-28T04:44:09;2.92;;;1.48;;
65230;SDS011;51813;40.666;16.602;2023-02-28T04:46:35;3.40;;;1.33;;
65230;SDS011;51813;40.666;16.602;2023-02-28T04:49:01;2.50;;;1.52;;
65230;SDS011;51813;40.666;16.602;2023-02-28T04:51:26;3.47;;;1.58;;
65230;SDS011;51813;40.666;16.602;2023-02-28T04:53:52;2.55;;;1.42;;
65230;SDS011;51813;40.666;16.602;2023-02-28T04:56:18;3.53;;;1.50;;
65230;SDS011;51813;40.666;16.602;2023-02-28T04:58:44;2.50;;;1.30;;
65230;SDS011;51813;40.666;16.602;2023-02-28T05:03:42;2.10;;;1.25;;
65230;SDS011;51813;40.666;16.602;2023-02-28T05:06:08;2.35;;;1.30;;
65230;SDS011;51813;40.666;16.602;2023-02-28T05:08:35;3.03;;;1.17;;
65230;SDS011;51813;40.666;16.602;2023-02-28T05:11:01;2.22;;;1.35;;
65230;SDS011;51813;40.666;16.602;2023-02-28T05:13:28;4.38;;;1.65;;
65230;SDS011;51813;40.666;16.602;2023-02-28T05:15:54;2.58;;;1.42;;
65230;SDS011;51813;40.666;16.602;2023-02-28T05:18:20;3.38;;;1.30;;
65230;SDS011;51813;40.666;16.602;2023-02-28T05:20:46;2.70;;;1.20;;
65230;SDS011;51813;40.666;16.602;2023-02-28T05:23:12;3.78;;;1.48;;
65230;SDS011;51813;40.666;16.602;2023-02-28T05:25:38;2.10;;;1.40;;
65230;SDS011;51813;40.666;16.602;2023-02-28T05:28:05;3.88;;;1.40;;
65230;SDS011;51813;40.666;16.602;2023-02-28T05:30:31;2.88;;;1.30;;
65230;SDS011;51813;40.666;16.602;2023-02-28T05:32:57;3.05;;;1.30;;
65230;SDS011;51813;40.666;16.602;2023-02-28T05:35:25;2.92;;;1.30;;
65230;SDS011;51813;40.666;16.602;2023-02-28T05:37:51;2.85;;;1.40;;
65230;SDS011;51813;40.666;16.602;2023-02-28T05:40:18;2.90;;;1.42;;
65230;SDS011;51813;40.666;16.602;2023-02-28T05:42:45;3.67;;;1.60;;
65230;SDS011;51813;40.666;16.602;2023-02-28T05:45:11;3.03;;;1.33;;
65230;SDS011;51813;40.666;16.602;2023-02-28T05:47:37;2.70;;;1.38;;
65230;SDS011;51813;40.666;16.602;2023-02-28T05:50:03;4.10;;;1.98;;
65230;SDS011;51813;40.666;16.602;2023-02-28T05:52:30;3.08;;;1.50;;
65230;SDS011;51813;40.666;16.602;2023-02-28T05:54:56;3.83;;;1.50;;
65230;SDS011;51813;40.666;16.602;2023-02-28T05:57:22;4.03;;;1.52;;
65230;SDS011;51813;40.666;16.602;2023-02-28T05:59:48;4.22;;;1.63;;
65230;SDS011;51813;40.666;16.602;2023-02-28T06:02:15;3.50;;;1.50;;
65230;SDS011;51813;40.666;16.602;2023-02-28T06:04:42;2.85;;;1.73;;
65230;SDS011;51813;40.666;16.602;2023-02-28T06:07:09;3.63;;;1.55;;
65230;SDS011;51813;40.666;16.602;2023-02-28T06:09:35;3.40;;;1.70;;
65230;SDS011;51813;40.666;16.602;2023-02-28T06:12:02;3.35;;;1.70;;
65230;SDS011;51813;40.666;16.602;2023-02-28T06:14:30;3.33;;;1.45;;
65230;SDS011;51813;40.666;16.602;2023-02-28T06:16:57;3.20;;;1.55;;
65230;SDS011;51813;40.666;16.602;2023-02-28T06:19:23;3.85;;;1.50;;
65230;SDS011;51813;40.666;16.602;2023-02-28T06:21:50;2.33;;;1.23;;
65230;SDS011;51813;40.666;16.602;2023-02-28T06:24:17;3.67;;;1.58;;
65230;SDS011;51813;40.666;16.602;2023-02-28T06:26:46;3.70;;;1.30;;
65230;SDS011;51813;40.666;16.602;2023-02-28T06:29:12;4.63;;;2.15;;
65230;SDS011;51813;40.666;16.602;2023-02-28T06:31:42;2.40;;;1.40;;
65230;SDS011;51813;40.666;16.602;2023-02-28T06:34:08;2.50;;;1.38;;
65230;SDS011;51813;40.666;16.602;2023-02-28T06:36:36;3.35;;;1.55;;
65230;SDS011;51813;40.666;16.602;2023-02-28T06:39:05;2.95;;;1.40;;
65230;SDS011;51813;40.666;16.602;2023-02-28T06:41:32;3.65;;;1.55;;
65230;SDS011;51813;40.666;16.602;2023-02-28T06:44:02;3.42;;;1.88;;
65230;SDS011;51813;40.666;16.602;2023-02-28T06:46:38;2.90;;;1.40;;
65230;SDS011;51813;40.666;16.602;2023-02-28T06:49:06;3.05;;;1.45;;
65230;SDS011;51813;40.666;16.602;2023-02-28T06:51:34;3.33;;;1.70;;
65230;SDS011;51813;40.666;16.602;2023-02-28T06:54:00;2.60;;;1.50;;
65230;SDS011;51813;40.666;16.602;2023-02-28T06:56:26;4.05;;;1.55;;
65230;SDS011;51813;40.666;16.602;2023-02-28T06:58:52;2.70;;;1.33;;
65230;SDS011;51813;40.666;16.602;2023-02-28T07:01:18;4.20;;;1.60;;
65230;SDS011;51813;40.666;16.602;2023-02-28T07:03:44;3.75;;;1.85;;
65230;SDS011;51813;40.666;16.602;2023-02-28T07:06:11;2.60;;;1.40;;
65230;SDS011;51813;40.666;16.602;2023-02-28T07:08:37;3.42;;;1.50;;
65230;SDS011;51813;40.666;16.602;2023-02-28T07:11:05;4.57;;;1.60;;
65230;SDS011;51813;40.666;16.602;2023-02-28T07:13:30;4.13;;;1.70;;
65230;SDS011;51813;40.666;16.602;2023-02-28T07:15:58;4.15;;;1.60;;
65230;SDS011;51813;40.666;16.602;2023-02-28T07:18:25;4.55;;;1.77;;
65230;SDS011;51813;40.666;16.602;2023-02-28T07:20:51;4.95;;;1.83;;
65230;SDS011;51813;40.666;16.602;2023-02-28T07:23:17;4.55;;;1.80;;
65230;SDS011;51813;40.666;16.602;2023-02-28T07:25:42;4.13;;;2.10;;
65230;SDS011;51813;40.666;16.602;2023-02-28T07:28:09;4.03;;;1.80;;
65230;SDS011;51813;40.666;16.602;2023-02-28T07:30:34;3.33;;;1.50;;
65230;SDS011;51813;40.666;16.602;2023-02-28T07:33:00;3.67;;;1.60;;
65230;SDS011;51813;40.666;16.602;2023-02-28T07:35:26;2.85;;;1.60;;
65230;SDS011;51813;40.666;16.602;2023-02-28T07:37:51;3.42;;;1.63;;
65230;SDS011;51813;40.666;16.602;2023-02-28T07:40:17;3.10;;;1.50;;
65230;SDS011;51813;40.666;16.602;2023-02-28T07:42:43;3.35;;;1.30;;
65230;SDS011;51813;40.666;16.602;2023-02-28T07:45:10;3.88;;;1.23;;
65230;SDS011;51813;40.666;16.602;2023-02-28T07:47:40;4.00;;;1.75;;
65230;SDS011;51813;40.666;16.602;2023-02-28T07:50:08;2.70;;;1.55;;
65230;SDS011;51813;40.666;16.602;2023-02-28T07:52:36;2.95;;;1.38;;
65230;SDS011;51813;40.666;16.602;2023-02-28T07:55:02;4.65;;;2.05;;
65230;SDS011;51813;40.666;16.602;2023-02-28T07:57:29;2.70;;;1.33;;
65230;SDS011;51813;40.666;16.602;2023-02-28T07:59:55;4.10;;;1.70;;
65230;SDS011;51813;40.666;16.602;2023-02-28T08:02:20;4.30;;;1.83;;
65230;SDS011;51813;40.666;16.602;2023-02-28T08:04:46;3.42;;;1.70;;
65230;SDS011;51813;40.666;16.602;2023-02-28T08:07:13;3.22;;;1.60;;
65230;SDS011;51813;40.666;16.602;2023-02-28T08:09:40;2.33;;;1.30;;
65230;SDS011;51813;40.666;16.602;2023-02-28T08:12:06;5.05;;;1.90;;
65230;SDS011;51813;40.666;16.602;2023-02-28T08:14:33;4.07;;;1.50;;
65230;SDS011;51813;40.666;16.602;2023-02-28T08:16:58;3.13;;;1.60;;
65230;SDS011;51813;40.666;16.602;2023-02-28T08:19:24;2.97;;;1.40;;
65230;SDS011;51813;40.666;16.602;2023-02-28T08:21:50;2.35;;;1.33;;
65230;SDS011;51813;40.666;16.602;2023-02-28T08:24:15;3.83;;;2.00;;
65230;SDS011;51813;40.666;16.602;2023-02-28T08:26:41;3.17;;;1.77;;
65230;SDS011;51813;40.666;16.602;2023-02-28T08:29:07;3.92;;;1.70;;
65230;SDS011;51813;40.666;16.602;2023-02-28T08:31:33;3.45;;;1.55;;
65230;SDS011;51813;40.666;16.602;2023-02-28T08:34:00;3.97;;;1.60;;
65230;SDS011;51813;40.666;16.602;2023-02-28T08:36:37;4.15;;;1.60;;
65230;SDS011;51813;40.666;16.602;2023-02-28T08:39:03;3.92;;;1.55;;
65230;SDS011;51813;40.666;16.602;2023-02-28T08:41:30;3.15;;;1.40;;
65230;SDS011;51813;40.666;16.602;2023-02-28T08:43:56;7.15;;;2.45;;
65230;SDS011;51813;40.666;16.602;2023-02-28T08:46:22;4.82;;;2.13;;
65230;SDS011;51813;40.666;16.602;2023-02-28T08:48:51;3.65;;;1.60;;
65230;SDS011;51813;40.666;16.602;2023-02-28T08:51:18;4.95;;;1.80;;
65230;SDS011;51813;40.666;16.602;2023-02-28T08:53:51;4.03;;;1.80;;
65230;SDS011;51813;40.666;16.602;2023-02-28T08:56:17;4.10;;;1.70;;
65230;SDS011;51813;40.666;16.602;2023-02-28T08:58:43;4.47;;;1.58;;
65230;SDS011;51813;40.666;16.602;2023-02-28T09:01:15;3.92;;;1.67;;
65230;SDS011;51813;40.666;16.602;2023-02-28T09:03:42;4.05;;;1.60;;
65230;SDS011;51813;40.666;16.602;2023-02-28T09:06:10;3.75;;;2.13;;
65230;SDS011;51813;40.666;16.602;2023-02-28T09:08:36;5.25;;;1.70;;
65230;SDS011;51813;40.666;16.602;2023-02-28T09:11:02;4.03;;;1.70;;
65230;SDS011;51813;40.666;16.602;2023-02-28T09:13:28;5.22;;;1.80;;
65230;SDS011;51813;40.666;16.602;2023-02-28T09:15:57;5.63;;;2.03;;
65230;SDS011;51813;40.666;16.602;2023-02-28T09:18:23;3.83;;;1.63;;
65230;SDS011;51813;40.666;16.602;2023-02-28T09:20:49;4.05;;;2.00;;
65230;SDS011;51813;40.666;16.602;2023-02-28T09:23:15;3.80;;;1.63;;
65230;SDS011;51813;40.666;16.602;2023-02-28T09:25:45;3.60;;;1.58;;
65230;SDS011;51813;40.666;16.602;2023-02-28T09:28:16;4.18;;;1.70;;
65230;SDS011;51813;40.666;16.602;2023-02-28T09:30:43;8.07;;;2.10;;
65230;SDS011;51813;40.666;16.602;2023-02-28T09:33:10;2.92;;;1.52;;
65230;SDS011;51813;40.666;16.602;2023-02-28T09:35:35;6.55;;;1.98;;
65230;SDS011;51813;40.666;16.602;2023-02-28T09:38:02;3.35;;;1.60;;
65230;SDS011;51813;40.666;16.602;2023-02-28T09:40:29;4.72;;;1.58;;
65230;SDS011;51813;40.666;16.602;2023-02-28T09:42:55;4.05;;;1.63;;
65230;SDS011;51813;40.666;16.602;2023-02-28T09:45:32;4.70;;;1.70;;
65230;SDS011;51813;40.666;16.602;2023-02-28T09:48:02;4.00;;;1.63;;
65230;SDS011;51813;40.666;16.602;2023-02-28T09:50:41;3.80;;;1.60;;
65230;SDS011;51813;40.666;16.602;2023-02-28T09:55:51;3.58;;;1.45;;
65230;SDS011;51813;40.666;16.602;2023-02-28T09:58:59;4.03;;;1.60;;
65230;SDS011;51813;40.666;16.602;2023-02-28T10:10:03;5.88;;;1.90;;
65230;SDS011;51813;40.666;16.602;2023-02-28T10:12:40;3.80;;;2.03;;
65230;SDS011;51813;40.666;16.602;2023-02-28T10:15:13;3.78;;;1.70;;
65230;SDS011;51813;40.666;16.602;2023-02-28T10:20:10;3.60;;;1.52;;
65230;SDS011;51813;40.666;16.602;2023-02-28T10:25:35;3.58;;;1.60;;
65230;SDS011;51813;40.666;16.602;2023-02-28T10:28:09;3.55;;;1.80;;
65230;SDS011;51813;40.666;16.602;2023-02-28T10:30:41;6.03;;;2.08;;
65230;SDS011;51813;40.666;16.602;2023-02-28T10:33:27;3.90;;;1.75;;
65230;SDS011;51813;40.666;16.602;2023-02-28T10:35:55;4.28;;;1.80;;
65230;SDS011;51813;40.666;16.602;2023-02-28T10:41:04;3.72;;;1.60;;
65230;SDS011;51813;40.666;16.602;2023-02-28T10:43:30;4.18;;;1.98;;
65230;SDS011;51813;40.666;16.602;2023-02-28T10:45:57;4.53;;;1.80;;
65230;SDS011;51813;40.666;16.602;2023-02-28T10:49:11;4.78;;;2.00;;
65230;SDS011;51813;40.666;16.602;2023-02-28T10:51:33;4.88;;;2.10;;
65230;SDS011;51813;40.666;16.602;2023-02-28T10:54:04;5.82;;;2.30;;
65230;SDS011;51813;40.666;16.602;2023-02-28T10:56:30;4.80;;;2.47;;
65230;SDS011;51813;40.666;16.602;2023-02-28T11:01:54;4.72;;;2.28;;
65230;SDS011;51813;40.666;16.602;2023-02-28T11:06:58;6.57;;;2.13;;
65230;SDS011;51813;40.666;16.602;2023-02-28T11:12:26;4.07;;;2.05;;
65230;SDS011;51813;40.666;16.602;2023-02-28T11:15:00;3.83;;;2.40;;
65230;SDS011;51813;40.666;16.602;2023-02-28T11:17:32;5.07;;;2.35;;
65230;SDS011;51813;40.666;16.602;2023-02-28T11:19:59;5.75;;;2.20;;
65230;SDS011;51813;40.666;16.602;2023-02-28T11:22:29;3.67;;;2.42;;
65230;SDS011;51813;40.666;16.602;2023-02-28T11:24:59;7.10;;;2.42;;
65230;SDS011;51813;40.666;16.602;2023-02-28T11:29:58;6.05;;;2.63;;
65230;SDS011;51813;40.666;16.602;2023-02-28T11:32:26;8.43;;;3.13;;
65230;SDS011;51813;40.666;16.602;2023-02-28T11:35:04;4.82;;;2.55;;
65230;SDS011;51813;40.666;16.602;2023-02-28T11:37:36;7.22;;;3.22;;
65230;SDS011;51813;40.666;16.602;2023-02-28T11:40:12;6.18;;;3.25;;
65230;SDS011;51813;40.666;16.602;2023-02-28T11:42:48;5.60;;;2.67;;
65230;SDS011;51813;40.666;16.602;2023-02-28T11:50:38;5.43;;;3.30;;
65230;SDS011;51813;40.666;16.602;2023-02-28T11:56:10;6.05;;;2.95;;
65230;SDS011;51813;40.666;16.602;2023-02-28T12:09:44;4.53;;;2.50;;
65230;SDS011;51813;40.666;16.602;2023-02-28T12:25:37;6.45;;;3.30;;
65230;SDS011;51813;40.666;16.602;2023-02-28T12:28:12;9.13;;;3.50;;
65230;SDS011;51813;40.666;16.602;2023-02-28T12:36:00;11.50;;;4.38;;
65230;SDS011;51813;40.666;16.602;2023-02-28T12:38:36;7.85;;;4.22;;
65230;SDS011;51813;40.666;16.602;2023-02-28T12:41:34;5.80;;;3.53;;
65230;SDS011;51813;40.666;16.602;2023-02-28T12:44:14;7.97;;;3.58;;
65230;SDS011;51813;40.666;16.602;2023-02-28T12:46:44;6.25;;;3.33;;
65230;SDS011;51813;40.666;16.602;2023-02-28T12:52:08;5.90;;;4.05;;
65230;SDS011;51813;40.666;16.602;2023-02-28T12:54:47;8.35;;;3.60;;
65230;SDS011;51813;40.666;16.602;2023-02-28T12:57:51;7.65;;;4.40;;
65230;SDS011;51813;40.666;16.602;2023-02-28T13:00:29;9.18;;;4.18;;
65230;SDS011;51813;40.666;16.602;2023-02-28T13:08:59;7.03;;;3.30;;
65230;SDS011;51813;40.666;16.602;2023-02-28T13:11:30;3.53;;;2.75;;
65230;SDS011;51813;40.666;16.602;2023-02-28T13:16:51;5.65;;;2.90;;
65230;SDS011;51813;40.666;16.602;2023-02-28T13:19:18;8.73;;;4.60;;
65230;SDS011;51813;40.666;16.602;2023-02-28T13:21:48;7.37;;;3.97;;
65230;SDS011;51813;40.666;16.602;2023-02-28T13:29:28;5.53;;;3.00;;
65230;SDS011;51813;40.666;16.602;2023-02-28T13:34:30;7.65;;;4.57;;
65230;SDS011;51813;40.666;16.602;2023-02-28T13:42:34;4.65;;;3.10;;
65230;SDS011;51813;40.666;16.602;2023-02-28T13:47:36;5.93;;;3.38;;
65230;SDS011;51813;40.666;16.602;2023-02-28T13:50:23;5.68;;;3.22;;
65230;SDS011;51813;40.666;16.602;2023-02-28T13:59:06;5.82;;;3.95;;
65230;SDS011;51813;40.666;16.602;2023-02-28T14:07:15;5.15;;;3.20;;
65230;SDS011;51813;40.666;16.602;2023-02-28T14:09:50;6.65;;;3.25;;
65230;SDS011;51813;40.666;16.602;2023-02-28T14:12:55;7.45;;;3.30;;
65230;SDS011;51813;40.666;16.602;2023-02-28T14:20:44;4.68;;;3.25;;
65230;SDS011;51813;40.666;16.602;2023-02-28T14:26:29;5.30;;;3.03;;
65230;SDS011;51813;40.666;16.602;2023-02-28T14:29:36;5.63;;;3.22;;
65230;SDS011;51813;40.666;16.602;2023-02-28T14:31:48;6.60;;;3.22;;
65230;SDS011;51813;40.666;16.602;2023-02-28T14:34:39;7.63;;;3.17;;
65230;SDS011;51813;40.666;16.602;2023-02-28T14:37:10;5.25;;;3.08;;
65230;SDS011;51813;40.666;16.602;2023-02-28T14:39:41;7.65;;;3.20;;
65230;SDS011;51813;40.666;16.602;2023-02-28T14:42:27;6.85;;;3.20;;
65230;SDS011;51813;40.666;16.602;2023-02-28T14:44:55;5.72;;;3.17;;
65230;SDS011;51813;40.666;16.602;2023-02-28T14:47:25;7.05;;;2.92;;
65230;SDS011;51813;40.666;16.602;2023-02-28T14:49:59;9.07;;;3.80;;
65230;SDS011;51813;40.666;16.602;2023-02-28T14:52:27;5.55;;;3.35;;
65230;SDS011;51813;40.666;16.602;2023-02-28T14:55:01;5.18;;;2.95;;
65230;SDS011;51813;40.666;16.602;2023-02-28T14:57:33;6.10;;;3.40;;
65230;SDS011;51813;40.666;16.602;2023-02-28T15:00:12;5.95;;;3.05;;
65230;SDS011;51813;40.666;16.602;2023-02-28T15:02:40;8.45;;;3.47;;
65230;SDS011;51813;40.666;16.602;2023-02-28T15:07:44;7.53;;;4.30;;
65230;SDS011;51813;40.666;16.602;2023-02-28T15:10:29;6.15;;;3.45;;
65230;SDS011;51813;40.666;16.602;2023-02-28T15:12:56;7.97;;;3.65;;
65230;SDS011;51813;40.666;16.602;2023-02-28T15:18:00;7.45;;;3.42;;
65230;SDS011;51813;40.666;16.602;2023-02-28T15:20:30;7.53;;;3.40;;
65230;SDS011;51813;40.666;16.602;2023-02-28T15:22:57;4.90;;;3.50;;
65230;SDS011;51813;40.666;16.602;2023-02-28T15:25:23;6.22;;;3.40;;
65230;SDS011;51813;40.666;16.602;2023-02-28T15:27:51;6.65;;;3.20;;
65230;SDS011;51813;40.666;16.602;2023-02-28T15:30:26;9.20;;;3.72;;
65230;SDS011;51813;40.666;16.602;2023-02-28T15:35:33;13.48;;;3.65;;
65230;SDS011;51813;40.666;16.602;2023-02-28T15:38:00;8.80;;;4.28;;
65230;SDS011;51813;40.666;16.602;2023-02-28T15:40:36;8.85;;;4.82;;
65230;SDS011;51813;40.666;16.602;2023-02-28T15:48:03;7.88;;;3.47;;
65230;SDS011;51813;40.666;16.602;2023-02-28T15:50:31;8.63;;;3.70;;
65230;SDS011;51813;40.666;16.602;2023-02-28T15:52:57;7.75;;;4.45;;
65230;SDS011;51813;40.666;16.602;2023-02-28T15:55:23;7.07;;;3.97;;
65230;SDS011;51813;40.666;16.602;2023-02-28T15:57:53;8.43;;;3.78;;
65230;SDS011;51813;40.666;16.602;2023-02-28T16:00:24;4.95;;;3.30;;
65230;SDS011;51813;40.666;16.602;2023-02-28T16:02:51;6.47;;;3.45;;
65230;SDS011;51813;40.666;16.602;2023-02-28T16:07:55;8.98;;;4.32;;
65230;SDS011;51813;40.666;16.602;2023-02-28T16:10:22;6.65;;;3.47;;
65230;SDS011;51813;40.666;16.602;2023-02-28T16:12:52;8.95;;;4.55;;
65230;SDS011;51813;40.666;16.602;2023-02-28T16:15:24;9.73;;;4.03;;
65230;SDS011;51813;40.666;16.602;2023-02-28T16:17:54;9.55;;;4.20;;
65230;SDS011;51813;40.666;16.602;2023-02-28T16:20:22;9.93;;;4.25;;
65230;SDS011;51813;40.666;16.602;2023-02-28T16:22:50;8.45;;;3.55;;
65230;SDS011;51813;40.666;16.602;2023-02-28T16:25:17;8.95;;;3.83;;
65230;SDS011;51813;40.666;16.602;2023-02-28T16:27:53;8.13;;;3.83;;
65230;SDS011;51813;40.666;16.602;2023-02-28T16:30:26;7.07;;;3.60;;
65230;SDS011;51813;40.666;16.602;2023-02-28T16:32:54;8.07;;;3.38;;
65230;SDS011;51813;40.666;16.602;2023-02-28T16:35:20;7.28;;;3.35;;
65230;SDS011;51813;40.666;16.602;2023-02-28T16:37:47;5.22;;;3.50;;
65230;SDS011;51813;40.666;16.602;2023-02-28T16:40:17;13.00;;;4.07;;
65230;SDS011;51813;40.666;16.602;2023-02-28T16:42:46;6.13;;;3.30;;
65230;SDS011;51813;40.666;16.602;2023-02-28T16:45:20;6.47;;;3.60;;
65230;SDS011;51813;40.666;16.602;2023-02-28T16:47:48;9.43;;;4.28;;
65230;SDS011;51813;40.666;16.602;2023-02-28T16:50:19;5.38;;;3.30;;
65230;SDS011;51813;40.666;16.602;2023-02-28T16:52:47;9.45;;;3.30;;
65230;SDS011;51813;40.666;16.602;2023-02-28T16:55:14;11.38;;;3.50;;
65230;SDS011;51813;40.666;16.602;2023-02-28T16:57:40;11.27;;;3.85;;
65230;SDS011;51813;40.666;16.602;2023-02-28T17:00:08;7.75;;;4.07;;
65230;SDS011;51813;40.666;16.602;2023-02-28T17:02:38;10.75;;;3.88;;
65230;SDS011;51813;40.666;16.602;2023-02-28T17:05:04;9.00;;;3.92;;
65230;SDS011;51813;40.666;16.602;2023-02-28T17:07:31;9.18;;;3.80;;
65230;SDS011;51813;40.666;16.602;2023-02-28T17:09:57;8.32;;;4.25;;
65230;SDS011;51813;40.666;16.602;2023-02-28T17:12:24;8.40;;;3.25;;
65230;SDS011;51813;40.666;16.602;2023-02-28T17:14:49;8.50;;;3.50;;
65230;SDS011;51813;40.666;16.602;2023-02-28T17:17:17;8.52;;;3.53;;
65230;SDS011;51813;40.666;16.602;2023-02-28T17:19:45;8.25;;;3.88;;
65230;SDS011;51813;40.666;16.602;2023-02-28T17:22:11;6.90;;;3.30;;
65230;SDS011;51813;40.666;16.602;2023-02-28T17:24:37;6.90;;;3.83;;
65230;SDS011;51813;40.666;16.602;2023-02-28T17:27:03;6.60;;;3.20;;
65230;SDS011;51813;40.666;16.602;2023-02-28T17:29:29;7.85;;;3.20;;
65230;SDS011;51813;40.666;16.602;2023-02-28T17:31:55;5.60;;;3.75;;
65230;SDS011;51813;40.666;16.602;2023-02-28T17:34:21;7.22;;;3.47;;
65230;SDS011;51813;40.666;16.602;2023-02-28T17:36:47;5.55;;;3.13;;
65230;SDS011;51813;40.666;16.602;2023-02-28T17:39:15;5.97;;;3.55;;
65230;SDS011;51813;40.666;16.602;2023-02-28T17:41:49;6.85;;;3.47;;
65230;SDS011;51813;40.666;16.602;2023-02-28T17:44:19;7.57;;;4.18;;
65230;SDS011;51813;40.666;16.602;2023-02-28T17:46:45;17.40;;;15.75;;
65230;SDS011;51813;40.666;16.602;2023-02-28T17:49:11;7.30;;;3.50;;